Time;durP1;ratioP1;P1;durP2;ratioP2;P2;SDS_P1;SDS_P2;PMS_P1;PMS_P2;Temp;Humidity;BMP_temperature;BMP_pressure;BME280_temperature;BME280_humidity;BME280_pressure;Samples;Min_cycle;Max_cycle;Signal;HPM_P1;HPM_P2
2023/06/21 00:01:55;;;;;;;93.72;65.63;;;;;;;;;;4959070;29;20023;-69
2023/06/21 00:04:21;;;;;;;88.78;62.35;;;;;;;;;;4958998;29;20066;-70
2023/06/21 00:06:51;;;;;;;71.90;51.28;;;;;;;;;;4957998;29;20058;-69
2023/06/21 00:09:18;;;;;;;70.65;47.55;;;;;;;;;;4949194;29;20051;-69
2023/06/21 00:11:45;;;;;;;79.90;54.22;;;;;;;;;;4939951;29;20075;-69
2023/06/21 00:14:12;;;;;;;66.05;47.63;;;;;;;;;;4939009;29;20031;-69
2023/06/21 00:16:38;;;;;;;61.88;45.88;;;;;;;;;;4938007;29;20074;-69
2023/06/21 00:19:05;;;;;;;71.22;49.13;;;;;;;;;;4938172;29;20038;-68
2023/06/21 00:21:32;;;;;;;72.35;49.78;;;;;;;;;;4937344;29;20433;-67
2023/06/21 00:24:02;;;;;;;85.40;65.72;;;;;;;;;;4935780;29;20299;-71
2023/06/21 00:26:29;;;;;;;79.90;57.45;;;;;;;;;;4930315;29;20413;-68
2023/06/21 00:28:56;;;;;;;90.88;63.95;;;;;;;;;;4928449;29;20103;-69
2023/06/21 00:31:22;;;;;;;97.75;68.30;;;;;;;;;;4926631;29;20028;-69
2023/06/21 00:33:49;;;;;;;72.28;49.72;;;;;;;;;;4927335;29;20051;-68
2023/06/21 00:36:16;;;;;;;67.18;44.92;;;;;;;;;;4928343;29;20370;-69
2023/06/21 00:38:42;;;;;;;63.63;44.45;;;;;;;;;;4926604;29;20434;-69
2023/06/21 00:41:09;;;;;;;56.83;39.90;;;;;;;;;;4927256;29;20044;-69
2023/06/21 00:43:36;;;;;;;77.60;51.80;;;;;;;;;;4928146;29;20020;-69
2023/06/21 00:46:04;;;;;;;70.28;47.95;;;;;;;;;;4926311;29;20506;-70
2023/06/21 00:48:30;;;;;;;67.60;46.33;;;;;;;;;;4927109;29;20085;-69
2023/06/21 00:50:57;;;;;;;64.97;43.50;;;;;;;;;;4927871;29;20024;-72
2023/06/21 00:53:26;;;;;;;61.55;44.88;;;;;;;;;;4909433;29;20020;-69
2023/06/21 00:55:52;;;;;;;56.88;40.63;;;;;;;;;;4926681;29;20023;-68
2023/06/21 00:58:22;;;;;;;56.13;38.15;;;;;;;;;;4930286;29;20042;-68
2023/06/21 01:00:50;;;;;;;56.08;38.78;;;;;;;;;;4929085;29;20103;-68
2023/06/21 01:03:17;;;;;;;58.33;38.33;;;;;;;;;;4936747;29;20031;-68
2023/06/21 01:05:52;;;;;;;50.88;37.45;;;;;;;;;;4930399;29;20075;-68
2023/06/21 01:08:21;;;;;;;58.65;39.05;;;;;;;;;;4926953;29;20015;-69
2023/06/21 01:11:06;;;;;;;59.10;38.40;;;;;;;;;;4926776;29;20031;-69
2023/06/21 01:13:38;;;;;;;41.08;30.27;;;;;;;;;;4927531;29;20047;-69
2023/06/21 01:16:10;;;;;;;42.55;31.13;;;;;;;;;;4926336;29;20072;-69
2023/06/21 01:18:37;;;;;;;39.40;29.27;;;;;;;;;;4931118;29;20082;-69
2023/06/21 01:21:04;;;;;;;40.20;28.33;;;;;;;;;;4931246;29;20016;-69
2023/06/21 01:23:31;;;;;;;41.30;28.40;;;;;;;;;;4927077;29;20067;-69
2023/06/21 01:26:20;;;;;;;64.30;38.90;;;;;;;;;;4926638;29;20098;-69
2023/06/21 01:29:06;;;;;;;73.22;53.45;;;;;;;;;;4911818;29;20393;-69
2023/06/21 01:31:38;;;;;;;62.78;43.30;;;;;;;;;;4927020;29;20442;-69
2023/06/21 01:34:05;;;;;;;62.83;41.75;;;;;;;;;;4926195;29;20060;-69
2023/06/21 01:36:33;;;;;;;62.60;36.55;;;;;;;;;;4928716;29;20019;-69
2023/06/21 01:39:00;;;;;;;53.88;30.58;;;;;;;;;;4926669;29;20028;-70
2023/06/21 01:41:28;;;;;;;43.15;30.15;;;;;;;;;;4911057;29;20039;-70
2023/06/21 01:43:55;;;;;;;41.13;28.08;;;;;;;;;;4926839;29;20024;-69
2023/06/21 01:46:23;;;;;;;38.97;29.40;;;;;;;;;;4926117;29;20102;-69
2023/06/21 01:48:50;;;;;;;40.85;27.70;;;;;;;;;;4928111;29;20380;-68
2023/06/21 01:51:18;;;;;;;42.33;27.67;;;;;;;;;;4927494;29;20050;-70
2023/06/21 01:53:44;;;;;;;34.30;27.17;;;;;;;;;;4909264;29;20478;-70
2023/06/21 01:56:16;;;;;;;44.25;33.88;;;;;;;;;;4928392;29;20028;-70
2023/06/21 01:58:43;;;;;;;;;;;;;;;;;;4929106;29;20024;-69
2023/06/21 02:01:10;;;;;;;45.08;29.10;;;;;;;;;;4927301;29;19907;-70
2023/06/21 02:03:39;;;;;;;31.35;24.08;;;;;;;;;;4927101;29;20361;-71
2023/06/21 02:06:06;;;;;;;29.58;21.60;;;;;;;;;;4928218;29;20331;-71
2023/06/21 02:08:34;;;;;;;27.85;21.95;;;;;;;;;;4927008;29;20020;-68
2023/06/21 02:11:01;;;;;;;32.20;22.33;;;;;;;;;;4926098;29;20035;-72
2023/06/21 02:13:28;;;;;;;27.75;21.75;;;;;;;;;;4927537;29;20550;-72
2023/06/21 02:15:55;;;;;;;25.70;20.27;;;;;;;;;;4926527;29;20055;-74
2023/06/21 02:18:25;;;;;;;26.80;21.05;;;;;;;;;;4925720;29;20501;-72
2023/06/21 02:20:57;;;;;;;39.15;24.88;;;;;;;;;;4925906;29;20147;-73
2023/06/21 02:23:24;;;;;;;33.70;26.02;;;;;;;;;;4925485;29;20019;-72
2023/06/21 02:25:51;;;;;;;35.65;24.15;;;;;;;;;;4925242;29;20024;-71
2023/06/21 02:28:17;;;;;;;30.70;21.15;;;;;;;;;;4909033;29;20026;-72
2023/06/21 02:30:44;;;;;;;42.65;28.95;;;;;;;;;;4910120;29;20025;-72
2023/06/21 02:33:11;;;;;;;38.53;28.40;;;;;;;;;;4925314;29;20398;-74
2023/06/21 02:35:37;;;;;;;35.55;24.05;;;;;;;;;;4909590;29;20043;-74
2023/06/21 02:38:04;;;;;;;24.77;19.95;;;;;;;;;;4908185;29;20059;-74
2023/06/21 02:40:30;;;;;;;26.38;18.60;;;;;;;;;;4927448;29;20038;-75
2023/06/21 02:42:57;;;;;;;40.97;24.83;;;;;;;;;;4927485;29;20106;-74
2023/06/21 02:45:24;;;;;;;42.53;25.85;;;;;;;;;;4913203;29;20499;-74
2023/06/21 02:47:51;;;;;;;26.67;19.33;;;;;;;;;;4925903;29;20036;-74
2023/06/21 02:50:18;;;;;;;40.10;29.25;;;;;;;;;;4918740;29;20021;-73
2023/06/21 02:52:45;;;;;;;29.75;21.30;;;;;;;;;;4924107;29;20028;-74
2023/06/21 02:55:12;;;;;;;26.60;19.52;;;;;;;;;;4924474;29;20052;-73
2023/06/21 02:57:38;;;;;;;27.55;20.25;;;;;;;;;;4925076;29;20127;-74
2023/06/21 03:00:19;;;;;;;24.92;16.77;;;;;;;;;;4926190;29;20417;-74
2023/06/21 03:02:45;;;;;;;23.35;16.02;;;;;;;;;;4926147;29;20066;-73
2023/06/21 03:05:12;;;;;;;23.80;17.10;;;;;;;;;;4924706;29;20053;-74
2023/06/21 03:07:43;;;;;;;26.27;18.88;;;;;;;;;;4925181;29;20028;-74
2023/06/21 03:10:14;;;;;;;23.40;16.43;;;;;;;;;;4926033;29;20020;-73
2023/06/21 03:12:41;;;;;;;30.60;20.20;;;;;;;;;;4925469;29;20020;-72
2023/06/21 03:15:09;;;;;;;23.30;16.45;;;;;;;;;;4934105;29;20031;-72
2023/06/21 03:17:36;;;;;;;35.58;22.45;;;;;;;;;;4935320;29;20076;-72
2023/06/21 03:20:13;;;;;;;33.60;22.67;;;;;;;;;;4913341;29;20032;-72
2023/06/21 03:22:41;;;;;;;75.95;50.97;;;;;;;;;;4899644;29;20099;-71
2023/06/21 03:25:10;;;;;;;58.53;41.38;;;;;;;;;;4926121;29;20024;-70
2023/06/21 03:27:36;;;;;;;59.85;41.28;;;;;;;;;;4934497;29;20036;-71
2023/06/21 03:30:04;;;;;;;48.22;35.53;;;;;;;;;;4911136;29;20481;-72
2023/06/21 03:32:31;;;;;;;36.97;24.25;;;;;;;;;;4910525;29;20412;-71
2023/06/21 03:34:58;;;;;;;24.00;18.58;;;;;;;;;;4929875;29;20033;-72
2023/06/21 03:37:28;;;;;;;93.32;74.50;;;;;;;;;;4928326;29;20099;-73
2023/06/21 03:39:54;;;;;;;51.22;38.53;;;;;;;;;;4927335;29;20023;-73
2023/06/21 03:42:21;;;;;;;30.42;21.02;;;;;;;;;;4928951;29;20106;-69
2023/06/21 03:44:48;;;;;;;27.27;20.00;;;;;;;;;;4928564;29;20056;-72
2023/06/21 03:47:14;;;;;;;23.73;19.10;;;;;;;;;;4932270;29;20090;-72
2023/06/21 03:49:41;;;;;;;25.75;19.10;;;;;;;;;;4910500;29;20039;-73
2023/06/21 03:52:08;;;;;;;31.20;22.42;;;;;;;;;;4926048;29;20079;-71
2023/06/21 03:54:35;;;;;;;27.42;18.73;;;;;;;;;;4938668;29;20020;-71
2023/06/21 03:57:02;;;;;;;28.45;20.23;;;;;;;;;;4938246;29;20499;-72
2023/06/21 03:59:28;;;;;;;23.20;18.23;;;;;;;;;;4938662;29;20035;-72
2023/06/21 04:01:55;;;;;;;23.63;20.10;;;;;;;;;;4938518;29;20432;-72
2023/06/21 04:04:24;;;;;;;32.28;21.58;;;;;;;;;;4938355;29;20028;-72
2023/06/21 04:06:51;;;;;;;26.38;20.75;;;;;;;;;;4938288;29;20043;-72
2023/06/21 04:09:18;;;;;;;22.88;18.42;;;;;;;;;;4938311;29;20024;-71
2023/06/21 04:11:46;;;;;;;30.35;22.70;;;;;;;;;;4938201;29;20024;-71
2023/06/21 04:14:15;;;;;;;24.38;19.10;;;;;;;;;;4938196;29;20024;-72
2023/06/21 04:16:42;;;;;;;26.13;19.50;;;;;;;;;;4938237;29;20020;-72
2023/06/21 04:19:09;;;;;;;24.73;19.77;;;;;;;;;;4938184;29;20159;-72
2023/06/21 04:21:36;;;;;;;25.23;20.63;;;;;;;;;;4938005;29;20032;-72
2023/06/21 04:24:02;;;;;;;23.55;18.83;;;;;;;;;;4938162;29;20034;-72
2023/06/21 04:26:29;;;;;;;27.45;20.10;;;;;;;;;;4938032;29;20024;-72
2023/06/21 04:28:55;;;;;;;25.58;19.77;;;;;;;;;;4937874;29;20027;-72
2023/06/21 04:31:24;;;;;;;27.40;20.02;;;;;;;;;;4938002;29;20043;-72
2023/06/21 04:33:53;;;;;;;20.55;17.38;;;;;;;;;;4938082;29;20044;-72
2023/06/21 04:36:20;;;;;;;29.95;18.65;;;;;;;;;;4937691;29;20024;-71
2023/06/21 04:38:49;;;;;;;22.55;18.83;;;;;;;;;;4937787;29;20019;-71
2023/06/21 04:41:19;;;;;;;24.55;18.63;;;;;;;;;;4937823;29;20028;-71
2023/06/21 04:43:46;;;;;;;26.35;19.55;;;;;;;;;;4937513;29;20023;-71
2023/06/21 04:46:13;;;;;;;25.45;20.08;;;;;;;;;;4937728;29;20402;-73
2023/06/21 04:48:40;;;;;;;26.58;19.90;;;;;;;;;;4937647;29;20016;-72
2023/06/21 04:51:06;;;;;;;28.08;21.85;;;;;;;;;;4937357;29;20477;-72
2023/06/21 04:53:33;;;;;;;24.40;19.70;;;;;;;;;;4937654;29;20079;-72
2023/06/21 04:56:00;;;;;;;30.83;21.40;;;;;;;;;;4937271;29;20472;-70
2023/06/21 04:58:27;;;;;;;25.20;20.63;;;;;;;;;;4937419;29;20028;-71
2023/06/21 05:00:53;;;;;;;26.00;20.48;;;;;;;;;;4937543;29;20058;-71
2023/06/21 05:03:20;;;;;;;24.20;19.25;;;;;;;;;;4920266;29;20078;-71
2023/06/21 05:05:47;;;;;;;24.02;19.75;;;;;;;;;;4937111;29;20051;-71
2023/06/21 05:08:13;;;;;;;27.27;20.85;;;;;;;;;;4937341;29;20089;-72
2023/06/21 05:10:40;;;;;;;25.27;20.55;;;;;;;;;;4937266;29;20492;-72
2023/06/21 05:13:07;;;;;;;24.58;20.05;;;;;;;;;;4936880;29;20035;-72
2023/06/21 05:15:33;;;;;;;27.70;20.50;;;;;;;;;;4937234;29;20099;-71
2023/06/21 05:18:00;;;;;;;22.85;19.63;;;;;;;;;;4937179;29;20151;-72
2023/06/21 05:20:27;;;;;;;24.10;19.42;;;;;;;;;;4936854;29;20027;-71
2023/06/21 05:22:53;;;;;;;24.73;19.70;;;;;;;;;;4937150;29;20059;-71
2023/06/21 05:25:20;;;;;;;24.45;20.55;;;;;;;;;;4937026;29;20118;-72
2023/06/21 05:27:47;;;;;;;28.65;22.10;;;;;;;;;;4936907;29;20078;-69
2023/06/21 05:30:13;;;;;;;26.10;21.23;;;;;;;;;;4936750;29;20091;-72
2023/06/21 05:32:40;;;;;;;25.10;20.40;;;;;;;;;;4936638;29;20054;-71
2023/06/21 05:35:09;;;;;;;28.95;21.52;;;;;;;;;;4919636;29;20111;-69
2023/06/21 05:37:36;;;;;;;25.67;19.38;;;;;;;;;;4936372;29;20059;-72
2023/06/21 05:40:07;;;;;;;31.08;22.35;;;;;;;;;;4908994;29;20106;-70
2023/06/21 05:42:33;;;;;;;32.30;25.92;;;;;;;;;;4926993;29;20103;-72
2023/06/21 05:45:00;;;;;;;37.08;24.63;;;;;;;;;;4925940;29;20532;-72
2023/06/21 05:47:27;;;;;;;28.25;22.75;;;;;;;;;;4924880;29;20079;-71
2023/06/21 05:49:53;;;;;;;28.58;23.10;;;;;;;;;;4924996;29;20054;-71
2023/06/21 05:52:20;;;;;;;29.42;20.73;;;;;;;;;;4927564;29;20024;-73
2023/06/21 05:54:47;;;;;;;25.00;21.00;;;;;;;;;;4925011;29;20106;-71
2023/06/21 05:57:15;;;;;;;25.42;21.00;;;;;;;;;;4925087;29;20042;-73
2023/06/21 05:59:43;;;;;;;25.83;20.67;;;;;;;;;;4926470;29;20026;-70
2023/06/21 06:02:10;;;;;;;27.17;20.00;;;;;;;;;;4922393;29;20028;-69
2023/06/21 06:04:37;;;;;;;26.05;20.30;;;;;;;;;;4917239;29;20461;-70
2023/06/21 06:07:04;;;;;;;23.55;20.50;;;;;;;;;;4917497;29;20028;-72
2023/06/21 06:09:31;;;;;;;24.70;19.90;;;;;;;;;;4917330;29;20028;-72
2023/06/21 06:11:58;;;;;;;25.52;20.00;;;;;;;;;;4916889;29;20473;-72
2023/06/21 06:14:25;;;;;;;27.30;20.90;;;;;;;;;;4916017;29;20058;-73
2023/06/21 06:16:51;;;;;;;26.52;21.02;;;;;;;;;;4917263;29;20024;-72
2023/06/21 06:19:18;;;;;;;29.35;21.67;;;;;;;;;;4917084;29;20027;-73
2023/06/21 06:21:45;;;;;;;31.38;20.30;;;;;;;;;;4917061;29;20028;-72
2023/06/21 06:24:11;;;;;;;23.98;20.05;;;;;;;;;;4916739;29;20029;-72
2023/06/21 06:26:38;;;;;;;27.95;20.60;;;;;;;;;;4898194;29;20437;-72
2023/06/21 06:29:05;;;;;;;25.55;20.60;;;;;;;;;;4915873;29;20055;-72
2023/06/21 06:31:31;;;;;;;26.63;20.98;;;;;;;;;;4916416;29;20553;-72
2023/06/21 06:33:58;;;;;;;26.65;20.95;;;;;;;;;;4916506;29;20056;-71
2023/06/21 06:36:25;;;;;;;28.52;21.77;;;;;;;;;;4916482;29;20032;-72
2023/06/21 06:38:52;;;;;;;26.80;21.35;;;;;;;;;;4916528;29;20031;-72
2023/06/21 06:41:19;;;;;;;25.45;21.00;;;;;;;;;;4899946;29;20456;-73
2023/06/21 06:43:46;;;;;;;25.20;20.30;;;;;;;;;;4916865;29;20470;-72
2023/06/21 06:46:14;;;;;;;30.50;21.08;;;;;;;;;;4916984;29;20016;-73
2023/06/21 06:48:40;;;;;;;27.40;21.55;;;;;;;;;;4916872;29;20422;-72
2023/06/21 06:51:07;;;;;;;26.73;21.23;;;;;;;;;;4916748;29;20028;-72
2023/06/21 06:53:33;;;;;;;28.52;22.65;;;;;;;;;;4916797;29;20031;-73
2023/06/21 06:56:00;;;;;;;26.25;21.30;;;;;;;;;;4916810;29;20079;-72
2023/06/21 06:58:28;;;;;;;26.75;22.05;;;;;;;;;;4916654;29;20083;-72
2023/06/21 07:00:55;;;;;;;28.85;21.23;;;;;;;;;;4919171;29;20385;-73
2023/06/21 07:03:21;;;;;;;28.85;22.35;;;;;;;;;;4920557;29;20412;-73
2023/06/21 07:05:48;;;;;;;28.10;20.50;;;;;;;;;;4920357;29;20035;-72
2023/06/21 07:08:16;;;;;;;32.38;22.23;;;;;;;;;;4920514;29;20032;-73
2023/06/21 07:10:42;;;;;;;29.00;21.85;;;;;;;;;;4920458;29;20032;-73
2023/06/21 07:13:09;;;;;;;26.73;21.88;;;;;;;;;;4903132;29;20032;-73
2023/06/21 07:15:36;;;;;;;28.60;22.27;;;;;;;;;;4920295;29;20561;-73
2023/06/21 07:18:02;;;;;;;23.90;21.00;;;;;;;;;;4920409;29;20035;-73
2023/06/21 07:20:29;;;;;;;30.23;23.35;;;;;;;;;;4920071;29;20048;-73
2023/06/21 07:22:56;;;;;;;26.08;21.55;;;;;;;;;;4920267;29;20032;-73
2023/06/21 07:25:23;;;;;;;28.27;21.05;;;;;;;;;;4932584;29;20019;-72
2023/06/21 07:27:50;;;;;;;70.13;43.05;;;;;;;;;;4928461;29;20453;-72
2023/06/21 07:30:17;;;;;;;39.08;29.45;;;;;;;;;;4939170;29;20039;-72
2023/06/21 07:32:46;;;;;;;52.75;39.17;;;;;;;;;;4947277;29;20082;-72
2023/06/21 07:35:13;;;;;;;77.07;57.60;;;;;;;;;;4958009;29;20110;-72
2023/06/21 07:37:39;;;;;;;45.08;35.40;;;;;;;;;;4958018;29;20024;-72
2023/06/21 07:40:06;;;;;;;34.22;26.50;;;;;;;;;;4940806;29;20114;-72
2023/06/21 07:42:33;;;;;;;28.55;22.65;;;;;;;;;;4957902;29;20085;-72
2023/06/21 07:44:59;;;;;;;24.67;21.10;;;;;;;;;;4957976;29;20115;-72
2023/06/21 07:47:27;;;;;;;32.67;24.50;;;;;;;;;;4957908;29;20027;-72
2023/06/21 07:49:54;;;;;;;27.15;22.50;;;;;;;;;;4957730;29;20019;-71
2023/06/21 07:52:20;;;;;;;32.25;22.25;;;;;;;;;;4957749;29;20093;-71
2023/06/21 07:54:50;;;;;;;27.90;21.77;;;;;;;;;;4957914;29;20484;-71
2023/06/21 07:57:17;;;;;;;28.83;22.80;;;;;;;;;;4957747;28;20059;-71
2023/06/21 07:59:44;;;;;;;30.73;23.77;;;;;;;;;;4958002;29;20031;-71
2023/06/21 08:02:13;;;;;;;83.93;59.92;;;;;;;;;;4957714;29;20030;-71
2023/06/21 08:04:42;;;;;;;77.45;59.25;;;;;;;;;;4957358;29;20098;-71
2023/06/21 08:07:09;;;;;;;33.55;24.83;;;;;;;;;;4956747;29;20106;-71
2023/06/21 08:09:36;;;;;;;26.02;21.77;;;;;;;;;;4956662;29;20051;-71
2023/06/21 08:12:03;;;;;;;37.13;26.92;;;;;;;;;;4955998;28;20027;-71
2023/06/21 08:14:29;;;;;;;35.33;29.85;;;;;;;;;;4956608;29;20023;-71
2023/06/21 08:16:56;;;;;;;41.38;30.98;;;;;;;;;;4956482;29;20038;-71
2023/06/21 08:19:23;;;;;;;40.83;31.45;;;;;;;;;;4956514;29;20023;-71
2023/06/21 08:21:49;;;;;;;44.05;29.85;;;;;;;;;;4952248;29;20420;-71
2023/06/21 08:24:16;;;;;;;34.05;26.67;;;;;;;;;;4948418;29;20035;-71
2023/06/21 08:26:42;;;;;;;41.90;30.40;;;;;;;;;;4956198;29;20051;-70
2023/06/21 08:29:09;;;;;;;42.13;31.38;;;;;;;;;;4956163;29;20042;-70
2023/06/21 08:31:36;;;;;;;36.65;28.05;;;;;;;;;;4956043;29;20477;-71
2023/06/21 08:34:02;;;;;;;35.97;28.58;;;;;;;;;;4955917;29;20192;-71
2023/06/21 08:36:29;;;;;;;40.03;31.08;;;;;;;;;;4956200;29;20030;-72
2023/06/21 08:38:56;;;;;;;43.00;32.17;;;;;;;;;;4938738;29;20035;-72
2023/06/21 08:41:22;;;;;;;45.75;34.38;;;;;;;;;;4955918;29;20031;-71
2023/06/21 08:43:49;;;;;;;41.78;28.73;;;;;;;;;;4955793;29;20042;-71
2023/06/21 08:46:16;;;;;;;34.17;26.70;;;;;;;;;;4938579;29;20058;-73
2023/06/21 08:48:46;;;;;;;37.00;25.50;;;;;;;;;;4955856;29;20086;-73
2023/06/21 08:51:13;;;;;;;35.80;26.98;;;;;;;;;;4955929;29;20093;-73
2023/06/21 08:53:47;;;;;;;37.03;25.75;;;;;;;;;;4955769;29;20034;-72
2023/06/21 08:56:16;;;;;;;37.35;26.35;;;;;;;;;;4955487;28;20034;-72
2023/06/21 08:59:08;;;;;;;32.00;23.20;;;;;;;;;;4955655;29;20030;-73
2023/06/21 09:01:49;;;;;;;31.73;25.30;;;;;;;;;;4951343;28;20051;-72
2023/06/21 09:04:17;;;;;;;28.38;22.98;;;;;;;;;;4955503;29;20110;-70
2023/06/21 09:06:44;;;;;;;35.30;25.15;;;;;;;;;;4955312;29;20484;-71
2023/06/21 09:09:13;;;;;;;39.47;26.75;;;;;;;;;;4955383;29;20550;-71
2023/06/21 09:11:41;;;;;;;41.53;26.73;;;;;;;;;;4956616;29;20488;-70
2023/06/21 09:14:07;;;;;;;39.63;27.98;;;;;;;;;;4955800;29;20031;-68
2023/06/21 09:16:34;;;;;;;36.35;26.25;;;;;;;;;;4955286;29;20027;-68
2023/06/21 09:19:01;;;;;;;44.00;29.27;;;;;;;;;;4945350;29;20039;-69
2023/06/21 09:21:28;;;;;;;36.80;27.08;;;;;;;;;;4935741;29;20489;-69
2023/06/21 09:23:55;;;;;;;45.47;28.20;;;;;;;;;;4935189;29;20519;-69
2023/06/21 09:26:22;;;;;;;41.17;29.02;;;;;;;;;;4936212;29;20030;-69
2023/06/21 09:28:48;;;;;;;665.42;476.08;;;;;;;;;;4935909;29;20028;-70
2023/06/21 09:31:15;;;;;;;830.00;562.58;;;;;;;;;;4919128;29;20032;-69
2023/06/21 09:33:43;;;;;;;589.95;423.08;;;;;;;;;;4936767;29;20054;-69
2023/06/21 09:36:10;;;;;;;649.70;411.35;;;;;;;;;;4933859;29;20035;-69
2023/06/21 09:38:38;;;;;;;452.27;270.80;;;;;;;;;;4928954;29;20060;-71
2023/06/21 09:41:07;;;;;;;338.27;203.38;;;;;;;;;;4926327;29;20031;-72
2023/06/21 09:43:40;;;;;;;736.53;493.20;;;;;;;;;;4924714;29;20024;-72
2023/06/21 09:46:09;;;;;;;255.55;144.95;;;;;;;;;;4923880;29;20032;-71
2023/06/21 09:48:36;;;;;;;469.52;300.90;;;;;;;;;;4924949;29;20132;-72
2023/06/21 09:51:03;;;;;;;167.82;94.85;;;;;;;;;;4908616;29;20023;-71
2023/06/21 09:53:30;;;;;;;344.50;199.35;;;;;;;;;;4924021;29;20481;-73
2023/06/21 09:56:00;;;;;;;158.82;85.90;;;;;;;;;;4924573;29;20494;-72
2023/06/21 09:58:27;;;;;;;107.93;62.20;;;;;;;;;;4925658;29;20067;-72
2023/06/21 10:00:56;;;;;;;130.60;72.50;;;;;;;;;;4924565;29;20087;-73
2023/06/21 10:03:23;;;;;;;106.68;61.20;;;;;;;;;;4926009;29;20027;-74
2023/06/21 10:05:54;;;;;;;111.63;65.80;;;;;;;;;;4933318;29;20036;-73
2023/06/21 10:08:24;;;;;;;109.35;60.10;;;;;;;;;;4935666;29;20127;-73
2023/06/21 10:10:51;;;;;;;81.95;48.17;;;;;;;;;;4927092;29;20063;-72
2023/06/21 10:13:18;;;;;;;91.65;53.83;;;;;;;;;;4906621;29;20558;-73
2023/06/21 10:15:47;;;;;;;66.22;42.35;;;;;;;;;;4933722;29;20401;-73
2023/06/21 10:18:16;;;;;;;68.60;42.30;;;;;;;;;;4929513;29;20020;-72
2023/06/21 10:20:43;;;;;;;61.13;39.45;;;;;;;;;;4925458;29;20039;-72
2023/06/21 10:23:12;;;;;;;85.15;51.50;;;;;;;;;;4924062;29;20024;-71
2023/06/21 10:25:41;;;;;;;56.45;39.15;;;;;;;;;;4927972;29;20500;-72
2023/06/21 10:28:08;;;;;;;46.90;30.95;;;;;;;;;;4932777;29;20028;-72
2023/06/21 10:30:36;;;;;;;105.57;78.07;;;;;;;;;;4924921;29;20028;-71
2023/06/21 10:33:03;;;;;;;105.18;72.00;;;;;;;;;;4924830;29;20633;-71
2023/06/21 10:35:33;;;;;;;91.45;65.60;;;;;;;;;;4928904;29;20024;-73
2023/06/21 10:38:05;;;;;;;84.90;62.67;;;;;;;;;;4930367;29;20477;-72
2023/06/21 10:40:36;;;;;;;76.60;54.45;;;;;;;;;;4931458;29;20035;-70
2023/06/21 10:43:03;;;;;;;82.85;50.97;;;;;;;;;;4935187;29;20024;-71
2023/06/21 10:45:31;;;;;;;110.10;72.38;;;;;;;;;;4929607;29;20454;-70
2023/06/21 10:47:58;;;;;;;76.88;45.20;;;;;;;;;;4930280;29;20159;-71
2023/06/21 10:50:25;;;;;;;63.33;39.65;;;;;;;;;;4931476;29;20477;-70
2023/06/21 10:52:56;;;;;;;95.53;64.57;;;;;;;;;;4929688;29;20036;-71
2023/06/21 10:55:22;;;;;;;56.88;38.55;;;;;;;;;;4929718;29;20020;-72
2023/06/21 10:57:53;;;;;;;80.72;55.65;;;;;;;;;;4914333;29;20031;-71
2023/06/21 11:00:20;;;;;;;54.40;35.38;;;;;;;;;;4930674;29;20024;-72
2023/06/21 11:02:46;;;;;;;50.28;31.33;;;;;;;;;;4932022;29;20027;-71
2023/06/21 11:05:19;;;;;;;59.08;39.28;;;;;;;;;;4929813;29;20032;-72
2023/06/21 11:07:52;;;;;;;47.40;32.80;;;;;;;;;;4929388;29;20032;-72
2023/06/21 11:10:21;;;;;;;51.38;32.13;;;;;;;;;;4913174;29;20027;-72
2023/06/21 11:12:48;;;;;;;52.03;34.05;;;;;;;;;;4934643;29;20020;-71
2023/06/21 11:15:35;;;;;;;39.13;30.33;;;;;;;;;;4931232;29;20023;-70
2023/06/21 11:18:02;;;;;;;54.63;37.67;;;;;;;;;;4930573;29;20028;-70
2023/06/21 11:20:32;;;;;;;59.63;39.80;;;;;;;;;;4929445;29;20046;-71
2023/06/21 11:22:59;;;;;;;42.40;32.55;;;;;;;;;;4913421;29;20448;-70
2023/06/21 11:25:26;;;;;;;41.03;29.67;;;;;;;;;;4914150;29;20042;-71
2023/06/21 11:28:13;;;;;;;39.03;28.42;;;;;;;;;;4929568;29;20365;-64
2023/06/21 11:30:39;;;;;;;49.95;30.80;;;;;;;;;;4920596;29;20092;-71
2023/06/21 11:33:19;;;;;;;41.60;30.85;;;;;;;;;;4928905;29;20111;-72
2023/06/21 11:35:49;;;;;;;45.28;32.20;;;;;;;;;;4929075;29;20036;-71
2023/06/21 11:38:17;;;;;;;51.17;35.38;;;;;;;;;;4930380;29;20024;-69
2023/06/21 11:40:44;;;;;;;50.03;34.17;;;;;;;;;;4931235;29;20372;-72
2023/06/21 11:43:18;;;;;;;50.38;36.80;;;;;;;;;;4933666;29;20028;-72
2023/06/21 11:45:55;;;;;;;51.90;35.75;;;;;;;;;;4937741;28;20481;-72
2023/06/21 11:48:25;;;;;;;48.40;32.50;;;;;;;;;;4927851;29;20489;-71
2023/06/21 11:50:52;;;;;;;51.35;37.72;;;;;;;;;;4927305;29;20032;-72
2023/06/21 11:53:20;;;;;;;90.95;50.75;;;;;;;;;;4922186;29;20111;-70
2023/06/21 11:56:16;;;;;;;61.42;39.00;;;;;;;;;;4934858;29;20419;-70
2023/06/21 11:58:42;;;;;;;63.55;39.35;;;;;;;;;;4926620;29;20095;-70
2023/06/21 12:01:09;;;;;;;53.65;36.58;;;;;;;;;;4926288;29;20492;-70
2023/06/21 12:03:36;;;;;;;49.85;32.10;;;;;;;;;;4935746;29;20028;-70
2023/06/21 12:06:03;;;;;;;44.10;29.35;;;;;;;;;;4930456;29;20027;-70
2023/06/21 12:08:33;;;;;;;44.65;29.95;;;;;;;;;;4926008;29;20028;-70
2023/06/21 12:11:02;;;;;;;69.47;41.67;;;;;;;;;;4925782;29;20059;-69
2023/06/21 12:13:29;;;;;;;133.50;69.25;;;;;;;;;;4926084;29;20024;-70
2023/06/21 12:15:56;;;;;;;56.53;33.75;;;;;;;;;;4931932;29;20091;-70
2023/06/21 12:18:24;;;;;;;45.10;29.70;;;;;;;;;;4934210;29;20046;-70
2023/06/21 12:20:51;;;;;;;45.25;29.52;;;;;;;;;;4936616;29;20028;-70
2023/06/21 12:23:18;;;;;;;37.55;27.27;;;;;;;;;;4919922;29;20212;-71
2023/06/21 12:25:49;;;;;;;43.75;28.83;;;;;;;;;;4936737;29;20031;-72
2023/06/21 12:28:17;;;;;;;39.05;27.73;;;;;;;;;;4919394;29;20031;-72
2023/06/21 12:30:47;;;;;;;38.55;27.42;;;;;;;;;;4936872;29;20035;-71
2023/06/21 12:33:14;;;;;;;43.92;30.88;;;;;;;;;;4936505;29;20035;-71
2023/06/21 12:35:41;;;;;;;62.88;39.00;;;;;;;;;;4936700;29;20034;-74
2023/06/21 12:38:13;;;;;;;47.25;30.67;;;;;;;;;;4938181;29;20032;-73
2023/06/21 12:40:52;;;;;;;37.85;28.02;;;;;;;;;;4933397;29;20012;-72
2023/06/21 12:43:38;;;;;;;42.53;28.45;;;;;;;;;;4937640;29;20032;-71
2023/06/21 12:46:06;;;;;;;43.38;27.98;;;;;;;;;;4937194;29;20042;-72
2023/06/21 12:48:33;;;;;;;41.97;29.58;;;;;;;;;;4937632;29;20031;-72
2023/06/21 12:51:00;;;;;;;39.92;29.95;;;;;;;;;;4936984;29;20044;-71
2023/06/21 12:53:29;;;;;;;44.60;29.48;;;;;;;;;;4936777;29;20434;-71
2023/06/21 12:55:56;;;;;;;42.90;30.45;;;;;;;;;;4919446;29;20020;-71
2023/06/21 12:58:22;;;;;;;52.35;30.10;;;;;;;;;;4924906;29;20043;-71
2023/06/21 13:00:49;;;;;;;50.25;35.33;;;;;;;;;;4914987;29;20035;-72
2023/06/21 13:03:19;;;;;;;47.20;31.83;;;;;;;;;;4933638;29;20438;-70
2023/06/21 13:05:46;;;;;;;48.00;30.25;;;;;;;;;;4913883;29;20239;-72
2023/06/21 13:08:13;;;;;;;51.40;30.40;;;;;;;;;;4925719;29;20019;-71
2023/06/21 13:10:39;;;;;;;43.22;32.90;;;;;;;;;;4926704;29;20047;-72
2023/06/21 13:13:06;;;;;;;46.80;33.05;;;;;;;;;;4924858;29;20127;-73
2023/06/21 13:15:32;;;;;;;49.72;34.47;;;;;;;;;;4925692;29;20099;-71
2023/06/21 13:17:59;;;;;;;48.17;33.80;;;;;;;;;;4927181;29;20544;-72
2023/06/21 13:20:26;;;;;;;47.63;32.38;;;;;;;;;;4911204;29;20037;-72
2023/06/21 13:22:53;;;;;;;47.13;34.90;;;;;;;;;;4929890;29;20462;-71
2023/06/21 13:25:20;;;;;;;50.22;34.10;;;;;;;;;;4931590;29;20028;-71
2023/06/21 13:27:47;;;;;;;42.60;32.47;;;;;;;;;;4926088;29;20102;-71
2023/06/21 13:30:13;;;;;;;48.30;33.72;;;;;;;;;;4925486;29;20028;-71
2023/06/21 13:32:40;;;;;;;45.97;32.17;;;;;;;;;;4924132;29;20079;-72
2023/06/21 13:35:07;;;;;;;39.15;31.15;;;;;;;;;;4926011;29;20028;-72
2023/06/21 13:37:33;;;;;;;37.92;31.10;;;;;;;;;;4925326;29;20020;-74
2023/06/21 13:40:00;;;;;;;37.78;28.35;;;;;;;;;;4924098;29;20410;-70
2023/06/21 13:42:27;;;;;;;40.28;28.02;;;;;;;;;;4908580;29;20034;-72
2023/06/21 13:44:53;;;;;;;36.20;27.95;;;;;;;;;;4925971;29;20028;-71
2023/06/21 13:47:20;;;;;;;101.47;73.82;;;;;;;;;;4925008;29;20031;-69
2023/06/21 13:49:48;;;;;;;116.63;79.50;;;;;;;;;;4925222;29;20062;-69
2023/06/21 13:52:22;;;;;;;46.17;33.72;;;;;;;;;;4925557;29;20026;-69
2023/06/21 13:54:49;;;;;;;46.05;33.95;;;;;;;;;;4928348;29;20020;-70
2023/06/21 13:57:16;;;;;;;45.47;32.28;;;;;;;;;;4909614;29;20067;-70
2023/06/21 13:59:47;;;;;;;58.10;35.08;;;;;;;;;;4926727;29;20020;-71
2023/06/21 14:02:14;;;;;;;42.78;32.90;;;;;;;;;;4934456;29;20028;-69
2023/06/21 14:04:41;;;;;;;40.55;30.90;;;;;;;;;;4927651;29;20028;-68
2023/06/21 14:07:10;;;;;;;50.15;32.78;;;;;;;;;;4925417;29;20071;-70
2023/06/21 14:09:38;;;;;;;110.47;86.38;;;;;;;;;;4933666;29;20023;-68
2023/06/21 14:12:06;;;;;;;65.18;51.88;;;;;;;;;;4936379;29;20030;-68
2023/06/21 14:14:32;;;;;;;53.35;40.00;;;;;;;;;;4935160;29;20087;-69
2023/06/21 14:16:59;;;;;;;56.65;38.50;;;;;;;;;;4928524;29;20051;-68
2023/06/21 14:19:26;;;;;;;51.40;38.97;;;;;;;;;;4929694;29;20034;-68
2023/06/21 14:21:52;;;;;;;47.72;33.80;;;;;;;;;;4927362;29;20029;-68